ΕΜΥ, Εθνική Μετεωρολογική Υπηρεσία - Δελτία Καιρού, Προγνώσεις

ΑΕΡΟΝΑΥΤΙΛΙΑ

GREEK AIRPORTS CODES

LGAV 201320Z 06016KT 9999 FEW025 SCT045 19/08 Q1026 RMK NOSIG=

EUROPEAN AIRPORTS CODES

LFPO 201300Z 22012KT 180V240 9999 BKN022 BKN028 19/15 Q1009TEMPO 21015G30KT=